sensor_id;sensor_type;location;lat;lon;timestamp;P1;durP1;ratioP1;P2;durP2;ratioP2
58414;SDS011;44210;42.706;18.344;2023-04-25T00:00:00;9.75;;;7.10;;
58414;SDS011;44210;42.706;18.344;2023-04-25T00:02:26;12.38;;;9.48;;
58414;SDS011;44210;42.706;18.344;2023-04-25T00:04:53;12.02;;;8.90;;
58414;SDS011;44210;42.706;18.344;2023-04-25T00:07:22;13.48;;;9.15;;
58414;SDS011;44210;42.706;18.344;2023-04-25T00:09:48;10.88;;;7.55;;
58414;SDS011;44210;42.706;18.344;2023-04-25T00:12:14;11.25;;;7.53;;
58414;SDS011;44210;42.706;18.344;2023-04-25T00:14:40;15.52;;;8.15;;
58414;SDS011;44210;42.706;18.344;2023-04-25T00:17:06;21.25;;;12.85;;
58414;SDS011;44210;42.706;18.344;2023-04-25T00:19:32;31.00;;;20.88;;
58414;SDS011;44210;42.706;18.344;2023-04-25T00:21:59;30.88;;;22.25;;
58414;SDS011;44210;42.706;18.344;2023-04-25T00:24:25;24.48;;;14.80;;
58414;SDS011;44210;42.706;18.344;2023-04-25T00:26:51;12.80;;;8.07;;
58414;SDS011;44210;42.706;18.344;2023-04-25T00:29:18;11.90;;;6.82;;
58414;SDS011;44210;42.706;18.344;2023-04-25T00:31:44;12.20;;;6.63;;
58414;SDS011;44210;42.706;18.344;2023-04-25T00:34:10;7.45;;;6.35;;
58414;SDS011;44210;42.706;18.344;2023-04-25T00:36:36;10.55;;;6.85;;
58414;SDS011;44210;42.706;18.344;2023-04-25T00:39:03;9.93;;;6.75;;
58414;SDS011;44210;42.706;18.344;2023-04-25T00:41:29;6.85;;;5.72;;
58414;SDS011;44210;42.706;18.344;2023-04-25T00:43:55;7.15;;;4.13;;
58414;SDS011;44210;42.706;18.344;2023-04-25T00:46:22;7.25;;;3.80;;
58414;SDS011;44210;42.706;18.344;2023-04-25T00:48:48;3.65;;;3.05;;
58414;SDS011;44210;42.706;18.344;2023-04-25T00:51:16;4.97;;;3.70;;
58414;SDS011;44210;42.706;18.344;2023-04-25T00:53:42;4.43;;;3.17;;
58414;SDS011;44210;42.706;18.344;2023-04-25T00:56:08;7.50;;;3.30;;
58414;SDS011;44210;42.706;18.344;2023-04-25T00:58:35;5.88;;;3.30;;
58414;SDS011;44210;42.706;18.344;2023-04-25T01:01:01;9.93;;;4.45;;
58414;SDS011;44210;42.706;18.344;2023-04-25T01:03:27;8.50;;;5.30;;
58414;SDS011;44210;42.706;18.344;2023-04-25T01:05:54;9.25;;;5.05;;
58414;SDS011;44210;42.706;18.344;2023-04-25T01:08:21;10.05;;;5.03;;
58414;SDS011;44210;42.706;18.344;2023-04-25T01:10:50;10.75;;;5.53;;
58414;SDS011;44210;42.706;18.344;2023-04-25T01:13:16;9.20;;;5.60;;
58414;SDS011;44210;42.706;18.344;2023-04-25T01:15:42;6.40;;;5.25;;
58414;SDS011;44210;42.706;18.344;2023-04-25T01:18:09;6.07;;;4.40;;
58414;SDS011;44210;42.706;18.344;2023-04-25T01:20:35;6.55;;;4.40;;
58414;SDS011;44210;42.706;18.344;2023-04-25T01:23:03;10.30;;;4.35;;
58414;SDS011;44210;42.706;18.344;2023-04-25T01:25:32;5.00;;;3.22;;
58414;SDS011;44210;42.706;18.344;2023-04-25T01:27:58;4.95;;;2.95;;
58414;SDS011;44210;42.706;18.344;2023-04-25T01:30:27;4.22;;;2.58;;
58414;SDS011;44210;42.706;18.344;2023-04-25T01:32:54;4.82;;;3.38;;
58414;SDS011;44210;42.706;18.344;2023-04-25T01:35:21;3.75;;;2.40;;
58414;SDS011;44210;42.706;18.344;2023-04-25T01:37:49;3.38;;;2.15;;
58414;SDS011;44210;42.706;18.344;2023-04-25T01:40:15;2.92;;;2.40;;
58414;SDS011;44210;42.706;18.344;2023-04-25T01:42:42;2.80;;;2.50;;
58414;SDS011;44210;42.706;18.344;2023-04-25T01:45:10;4.43;;;3.28;;
58414;SDS011;44210;42.706;18.344;2023-04-25T01:47:36;7.88;;;4.35;;
58414;SDS011;44210;42.706;18.344;2023-04-25T01:50:03;6.05;;;4.18;;
58414;SDS011;44210;42.706;18.344;2023-04-25T01:52:29;4.40;;;3.30;;
58414;SDS011;44210;42.706;18.344;2023-04-25T01:54:56;6.60;;;2.97;;
58414;SDS011;44210;42.706;18.344;2023-04-25T01:57:23;3.92;;;2.40;;
58414;SDS011;44210;42.706;18.344;2023-04-25T01:59:49;4.25;;;2.63;;
58414;SDS011;44210;42.706;18.344;2023-04-25T02:02:16;11.85;;;6.95;;
58414;SDS011;44210;42.706;18.344;2023-04-25T02:04:42;9.13;;;6.43;;
58414;SDS011;44210;42.706;18.344;2023-04-25T02:07:08;8.10;;;5.03;;
58414;SDS011;44210;42.706;18.344;2023-04-25T02:09:34;6.95;;;4.68;;
58414;SDS011;44210;42.706;18.344;2023-04-25T02:12:00;6.95;;;4.70;;
58414;SDS011;44210;42.706;18.344;2023-04-25T02:14:26;4.95;;;3.53;;
58414;SDS011;44210;42.706;18.344;2023-04-25T02:16:53;4.93;;;2.83;;
58414;SDS011;44210;42.706;18.344;2023-04-25T02:19:19;2.67;;;2.40;;
58414;SDS011;44210;42.706;18.344;2023-04-25T02:21:45;2.75;;;2.10;;
58414;SDS011;44210;42.706;18.344;2023-04-25T02:24:11;4.22;;;2.42;;
58414;SDS011;44210;42.706;18.344;2023-04-25T02:26:38;3.22;;;2.13;;
58414;SDS011;44210;42.706;18.344;2023-04-25T02:29:04;3.85;;;2.53;;
58414;SDS011;44210;42.706;18.344;2023-04-25T02:31:30;5.30;;;3.38;;
58414;SDS011;44210;42.706;18.344;2023-04-25T02:33:56;5.38;;;4.30;;
58414;SDS011;44210;42.706;18.344;2023-04-25T02:36:22;11.07;;;6.03;;
58414;SDS011;44210;42.706;18.344;2023-04-25T02:38:49;12.00;;;6.40;;
58414;SDS011;44210;42.706;18.344;2023-04-25T02:41:15;9.98;;;6.60;;
58414;SDS011;44210;42.706;18.344;2023-04-25T02:43:41;12.35;;;6.60;;
58414;SDS011;44210;42.706;18.344;2023-04-25T02:46:07;11.55;;;7.18;;
58414;SDS011;44210;42.706;18.344;2023-04-25T02:48:33;15.57;;;7.50;;
58414;SDS011;44210;42.706;18.344;2023-04-25T02:50:59;11.38;;;8.07;;
58414;SDS011;44210;42.706;18.344;2023-04-25T02:53:25;11.20;;;6.93;;
58414;SDS011;44210;42.706;18.344;2023-04-25T02:55:51;10.38;;;5.35;;
58414;SDS011;44210;42.706;18.344;2023-04-25T02:58:18;5.57;;;3.60;;
58414;SDS011;44210;42.706;18.344;2023-04-25T03:00:44;7.35;;;4.78;;
58414;SDS011;44210;42.706;18.344;2023-04-25T03:03:10;6.20;;;3.88;;
58414;SDS011;44210;42.706;18.344;2023-04-25T03:05:36;8.23;;;4.72;;
58414;SDS011;44210;42.706;18.344;2023-04-25T03:08:02;8.48;;;6.30;;
58414;SDS011;44210;42.706;18.344;2023-04-25T03:10:28;8.65;;;4.95;;
58414;SDS011;44210;42.706;18.344;2023-04-25T03:12:54;6.05;;;4.63;;
58414;SDS011;44210;42.706;18.344;2023-04-25T03:15:20;5.20;;;3.80;;
58414;SDS011;44210;42.706;18.344;2023-04-25T03:17:47;4.57;;;3.20;;
58414;SDS011;44210;42.706;18.344;2023-04-25T03:20:13;4.65;;;2.75;;
58414;SDS011;44210;42.706;18.344;2023-04-25T03:22:39;4.10;;;2.53;;
58414;SDS011;44210;42.706;18.344;2023-04-25T03:25:05;5.55;;;4.00;;
58414;SDS011;44210;42.706;18.344;2023-04-25T03:27:32;9.65;;;5.03;;
58414;SDS011;44210;42.706;18.344;2023-04-25T03:29:58;7.82;;;4.80;;
58414;SDS011;44210;42.706;18.344;2023-04-25T03:32:24;6.82;;;4.32;;
58414;SDS011;44210;42.706;18.344;2023-04-25T03:34:50;12.27;;;4.38;;
58414;SDS011;44210;42.706;18.344;2023-04-25T03:37:16;6.22;;;4.13;;
58414;SDS011;44210;42.706;18.344;2023-04-25T03:39:42;7.90;;;4.70;;
58414;SDS011;44210;42.706;18.344;2023-04-25T03:42:08;5.90;;;4.20;;
58414;SDS011;44210;42.706;18.344;2023-04-25T03:44:34;9.07;;;4.50;;
58414;SDS011;44210;42.706;18.344;2023-04-25T03:47:01;6.15;;;4.60;;
58414;SDS011;44210;42.706;18.344;2023-04-25T03:49:27;8.35;;;5.55;;
58414;SDS011;44210;42.706;18.344;2023-04-25T03:51:53;10.88;;;6.63;;
58414;SDS011;44210;42.706;18.344;2023-04-25T03:54:19;9.38;;;6.35;;
58414;SDS011;44210;42.706;18.344;2023-04-25T03:56:45;12.40;;;6.45;;
58414;SDS011;44210;42.706;18.344;2023-04-25T03:59:11;9.85;;;6.35;;
58414;SDS011;44210;42.706;18.344;2023-04-25T04:01:37;10.25;;;6.82;;
58414;SDS011;44210;42.706;18.344;2023-04-25T04:04:03;6.95;;;4.68;;
58414;SDS011;44210;42.706;18.344;2023-04-25T04:06:29;9.60;;;4.55;;
58414;SDS011;44210;42.706;18.344;2023-04-25T04:08:55;10.18;;;3.67;;
58414;SDS011;44210;42.706;18.344;2023-04-25T04:11:22;7.28;;;2.72;;
58414;SDS011;44210;42.706;18.344;2023-04-25T04:13:48;3.95;;;2.42;;
58414;SDS011;44210;42.706;18.344;2023-04-25T04:16:14;3.35;;;2.05;;
58414;SDS011;44210;42.706;18.344;2023-04-25T04:18:40;4.22;;;2.50;;
58414;SDS011;44210;42.706;18.344;2023-04-25T04:21:06;5.68;;;3.97;;
58414;SDS011;44210;42.706;18.344;2023-04-25T04:23:32;6.28;;;3.78;;
58414;SDS011;44210;42.706;18.344;2023-04-25T04:25:58;7.47;;;4.32;;
58414;SDS011;44210;42.706;18.344;2023-04-25T04:28:25;5.53;;;4.43;;
58414;SDS011;44210;42.706;18.344;2023-04-25T04:30:51;8.20;;;3.60;;
58414;SDS011;44210;42.706;18.344;2023-04-25T04:33:17;6.60;;;3.72;;
58414;SDS011;44210;42.706;18.344;2023-04-25T04:35:44;3.65;;;2.75;;
58414;SDS011;44210;42.706;18.344;2023-04-25T04:38:12;3.83;;;2.88;;
58414;SDS011;44210;42.706;18.344;2023-04-25T04:40:40;2.22;;;2.03;;
58414;SDS011;44210;42.706;18.344;2023-04-25T04:43:08;3.90;;;2.30;;
58414;SDS011;44210;42.706;18.344;2023-04-25T04:45:35;3.08;;;2.05;;
58414;SDS011;44210;42.706;18.344;2023-04-25T04:48:04;4.82;;;2.15;;
58414;SDS011;44210;42.706;18.344;2023-04-25T04:50:30;4.25;;;3.55;;
58414;SDS011;44210;42.706;18.344;2023-04-25T04:52:57;4.03;;;2.20;;
58414;SDS011;44210;42.706;18.344;2023-04-25T04:55:23;3.63;;;1.63;;
58414;SDS011;44210;42.706;18.344;2023-04-25T04:57:49;2.50;;;1.60;;
58414;SDS011;44210;42.706;18.344;2023-04-25T05:00:16;5.00;;;2.90;;
58414;SDS011;44210;42.706;18.344;2023-04-25T05:02:42;4.80;;;2.58;;
58414;SDS011;44210;42.706;18.344;2023-04-25T05:05:08;6.55;;;4.18;;
58414;SDS011;44210;42.706;18.344;2023-04-25T05:07:34;11.25;;;5.70;;
58414;SDS011;44210;42.706;18.344;2023-04-25T05:10:00;9.85;;;6.60;;
58414;SDS011;44210;42.706;18.344;2023-04-25T05:12:26;10.30;;;5.65;;
58414;SDS011;44210;42.706;18.344;2023-04-25T05:14:52;8.88;;;5.55;;
58414;SDS011;44210;42.706;18.344;2023-04-25T05:17:18;6.78;;;6.00;;
58414;SDS011;44210;42.706;18.344;2023-04-25T05:19:44;10.20;;;5.20;;
58414;SDS011;44210;42.706;18.344;2023-04-25T05:22:10;11.10;;;5.68;;
58414;SDS011;44210;42.706;18.344;2023-04-25T05:24:37;6.55;;;4.68;;
58414;SDS011;44210;42.706;18.344;2023-04-25T05:27:04;10.25;;;5.05;;
58414;SDS011;44210;42.706;18.344;2023-04-25T05:29:30;4.75;;;4.15;;
58414;SDS011;44210;42.706;18.344;2023-04-25T05:31:56;7.18;;;4.10;;
58414;SDS011;44210;42.706;18.344;2023-04-25T05:34:22;5.72;;;4.18;;
58414;SDS011;44210;42.706;18.344;2023-04-25T05:36:48;7.68;;;5.07;;
58414;SDS011;44210;42.706;18.344;2023-04-25T05:39:17;11.45;;;5.15;;
58414;SDS011;44210;42.706;18.344;2023-04-25T05:41:43;7.28;;;6.30;;
58414;SDS011;44210;42.706;18.344;2023-04-25T05:44:10;9.48;;;5.88;;
58414;SDS011;44210;42.706;18.344;2023-04-25T05:46:36;8.02;;;5.25;;
58414;SDS011;44210;42.706;18.344;2023-04-25T05:49:02;10.80;;;6.05;;
58414;SDS011;44210;42.706;18.344;2023-04-25T05:51:28;10.63;;;5.80;;
58414;SDS011;44210;42.706;18.344;2023-04-25T05:53:54;8.20;;;5.32;;
58414;SDS011;44210;42.706;18.344;2023-04-25T05:56:20;7.80;;;4.30;;
58414;SDS011;44210;42.706;18.344;2023-04-25T05:58:46;6.95;;;4.45;;
58414;SDS011;44210;42.706;18.344;2023-04-25T06:01:12;8.70;;;4.60;;
58414;SDS011;44210;42.706;18.344;2023-04-25T06:03:39;9.93;;;4.85;;
58414;SDS011;44210;42.706;18.344;2023-04-25T06:06:08;11.93;;;6.75;;
58414;SDS011;44210;42.706;18.344;2023-04-25T06:08:34;8.77;;;4.20;;
58414;SDS011;44210;42.706;18.344;2023-04-25T06:11:00;8.65;;;3.42;;
58414;SDS011;44210;42.706;18.344;2023-04-25T06:13:26;5.40;;;3.20;;
58414;SDS011;44210;42.706;18.344;2023-04-25T06:15:52;6.32;;;2.92;;
58414;SDS011;44210;42.706;18.344;2023-04-25T06:18:18;6.13;;;2.72;;
58414;SDS011;44210;42.706;18.344;2023-04-25T06:20:44;10.27;;;4.55;;
58414;SDS011;44210;42.706;18.344;2023-04-25T06:23:11;11.50;;;6.78;;
58414;SDS011;44210;42.706;18.344;2023-04-25T06:25:37;17.63;;;10.30;;
58414;SDS011;44210;42.706;18.344;2023-04-25T06:28:03;18.58;;;12.52;;
58414;SDS011;44210;42.706;18.344;2023-04-25T06:30:29;12.30;;;7.30;;
58414;SDS011;44210;42.706;18.344;2023-04-25T06:32:56;7.30;;;4.95;;
58414;SDS011;44210;42.706;18.344;2023-04-25T06:35:22;5.20;;;4.18;;
58414;SDS011;44210;42.706;18.344;2023-04-25T06:37:48;8.10;;;5.18;;
58414;SDS011;44210;42.706;18.344;2023-04-25T06:40:14;7.68;;;4.85;;
58414;SDS011;44210;42.706;18.344;2023-04-25T06:42:42;6.95;;;4.70;;
58414;SDS011;44210;42.706;18.344;2023-04-25T06:45:08;9.55;;;5.88;;
58414;SDS011;44210;42.706;18.344;2023-04-25T06:47:34;9.00;;;4.95;;
58414;SDS011;44210;42.706;18.344;2023-04-25T06:50:01;9.70;;;4.13;;
58414;SDS011;44210;42.706;18.344;2023-04-25T06:52:27;7.70;;;4.15;;
58414;SDS011;44210;42.706;18.344;2023-04-25T06:54:53;11.13;;;4.40;;
58414;SDS011;44210;42.706;18.344;2023-04-25T06:57:19;10.63;;;5.45;;
58414;SDS011;44210;42.706;18.344;2023-04-25T06:59:45;13.40;;;5.05;;
58414;SDS011;44210;42.706;18.344;2023-04-25T07:02:11;21.73;;;5.15;;
58414;SDS011;44210;42.706;18.344;2023-04-25T07:04:37;9.40;;;5.20;;
58414;SDS011;44210;42.706;18.344;2023-04-25T07:07:03;8.77;;;4.07;;
58414;SDS011;44210;42.706;18.344;2023-04-25T07:09:29;9.90;;;4.63;;
58414;SDS011;44210;42.706;18.344;2023-04-25T07:11:58;7.10;;;3.90;;
58414;SDS011;44210;42.706;18.344;2023-04-25T07:14:26;8.25;;;4.32;;
58414;SDS011;44210;42.706;18.344;2023-04-25T07:16:52;7.20;;;3.92;;
58414;SDS011;44210;42.706;18.344;2023-04-25T07:19:18;7.80;;;3.78;;
58414;SDS011;44210;42.706;18.344;2023-04-25T07:21:44;8.18;;;3.78;;
58414;SDS011;44210;42.706;18.344;2023-04-25T07:24:10;7.95;;;3.80;;
58414;SDS011;44210;42.706;18.344;2023-04-25T07:26:36;9.93;;;3.97;;
58414;SDS011;44210;42.706;18.344;2023-04-25T07:29:02;10.55;;;4.25;;
58414;SDS011;44210;42.706;18.344;2023-04-25T07:31:28;10.75;;;4.78;;
58414;SDS011;44210;42.706;18.344;2023-04-25T07:33:55;10.20;;;4.18;;
58414;SDS011;44210;42.706;18.344;2023-04-25T07:36:21;9.15;;;4.55;;
58414;SDS011;44210;42.706;18.344;2023-04-25T07:38:47;9.63;;;5.55;;
58414;SDS011;44210;42.706;18.344;2023-04-25T07:41:13;16.90;;;4.93;;
58414;SDS011;44210;42.706;18.344;2023-04-25T07:43:39;8.13;;;4.47;;
58414;SDS011;44210;42.706;18.344;2023-04-25T07:46:05;8.95;;;4.43;;
58414;SDS011;44210;42.706;18.344;2023-04-25T07:48:31;7.40;;;5.03;;
58414;SDS011;44210;42.706;18.344;2023-04-25T07:50:57;10.27;;;5.45;;
58414;SDS011;44210;42.706;18.344;2023-04-25T07:53:23;8.25;;;4.63;;
58414;SDS011;44210;42.706;18.344;2023-04-25T07:55:50;13.75;;;5.55;;
58414;SDS011;44210;42.706;18.344;2023-04-25T07:58:16;8.25;;;5.22;;
58414;SDS011;44210;42.706;18.344;2023-04-25T08:00:46;7.75;;;5.10;;
58414;SDS011;44210;42.706;18.344;2023-04-25T08:03:12;9.68;;;4.60;;
58414;SDS011;44210;42.706;18.344;2023-04-25T08:05:38;9.18;;;4.38;;
58414;SDS011;44210;42.706;18.344;2023-04-25T08:08:04;12.10;;;5.03;;
58414;SDS011;44210;42.706;18.344;2023-04-25T08:10:32;11.68;;;5.18;;
58414;SDS011;44210;42.706;18.344;2023-04-25T08:12:58;10.90;;;6.40;;
58414;SDS011;44210;42.706;18.344;2023-04-25T08:15:24;9.52;;;6.60;;
58414;SDS011;44210;42.706;18.344;2023-04-25T08:17:51;11.95;;;7.25;;
58414;SDS011;44210;42.706;18.344;2023-04-25T08:20:17;16.17;;;8.10;;
58414;SDS011;44210;42.706;18.344;2023-04-25T08:22:43;13.80;;;6.65;;
58414;SDS011;44210;42.706;18.344;2023-04-25T08:25:09;10.13;;;4.55;;
58414;SDS011;44210;42.706;18.344;2023-04-25T08:27:35;11.50;;;5.68;;
58414;SDS011;44210;42.706;18.344;2023-04-25T08:30:02;12.82;;;6.53;;
58414;SDS011;44210;42.706;18.344;2023-04-25T08:32:28;9.80;;;5.95;;
58414;SDS011;44210;42.706;18.344;2023-04-25T08:34:54;10.20;;;6.13;;
58414;SDS011;44210;42.706;18.344;2023-04-25T08:37:21;15.63;;;10.43;;
58414;SDS011;44210;42.706;18.344;2023-04-25T08:39:47;18.75;;;13.23;;
58414;SDS011;44210;42.706;18.344;2023-04-25T08:42:15;23.20;;;15.60;;
58414;SDS011;44210;42.706;18.344;2023-04-25T08:44:41;22.52;;;11.50;;
58414;SDS011;44210;42.706;18.344;2023-04-25T08:47:07;17.65;;;9.73;;
58414;SDS011;44210;42.706;18.344;2023-04-25T08:49:34;13.45;;;8.35;;
58414;SDS011;44210;42.706;18.344;2023-04-25T08:52:00;12.73;;;7.35;;
58414;SDS011;44210;42.706;18.344;2023-04-25T08:54:27;16.50;;;6.47;;
58414;SDS011;44210;42.706;18.344;2023-04-25T08:56:54;15.13;;;6.50;;
58414;SDS011;44210;42.706;18.344;2023-04-25T08:59:21;16.42;;;7.75;;
58414;SDS011;44210;42.706;18.344;2023-04-25T09:01:47;15.80;;;5.78;;
58414;SDS011;44210;42.706;18.344;2023-04-25T09:04:13;9.57;;;4.35;;
58414;SDS011;44210;42.706;18.344;2023-04-25T09:06:39;11.88;;;4.25;;
58414;SDS011;44210;42.706;18.344;2023-04-25T09:09:05;10.32;;;3.42;;
58414;SDS011;44210;42.706;18.344;2023-04-25T09:11:33;7.63;;;3.30;;
58414;SDS011;44210;42.706;18.344;2023-04-25T09:14:12;6.45;;;2.95;;
58414;SDS011;44210;42.706;18.344;2023-04-25T09:19:28;4.60;;;2.63;;
58414;SDS011;44210;42.706;18.344;2023-04-25T09:21:58;9.10;;;3.10;;
58414;SDS011;44210;42.706;18.344;2023-04-25T09:26:59;9.23;;;4.10;;
58414;SDS011;44210;42.706;18.344;2023-04-25T09:29:33;8.73;;;3.72;;
58414;SDS011;44210;42.706;18.344;2023-04-25T09:34:41;8.52;;;3.88;;
58414;SDS011;44210;42.706;18.344;2023-04-25T09:37:10;5.75;;;3.50;;
58414;SDS011;44210;42.706;18.344;2023-04-25T09:39:37;8.18;;;4.13;;
58414;SDS011;44210;42.706;18.344;2023-04-25T09:42:04;7.63;;;4.45;;
58414;SDS011;44210;42.706;18.344;2023-04-25T09:44:30;10.10;;;5.43;;
58414;SDS011;44210;42.706;18.344;2023-04-25T09:46:56;16.90;;;8.40;;
58414;SDS011;44210;42.706;18.344;2023-04-25T09:49:24;23.98;;;15.18;;
58414;SDS011;44210;42.706;18.344;2023-04-25T09:51:58;14.43;;;10.02;;
58414;SDS011;44210;42.706;18.344;2023-04-25T09:56:51;10.23;;;7.30;;
58414;SDS011;44210;42.706;18.344;2023-04-25T09:59:19;13.85;;;8.43;;
58414;SDS011;44210;42.706;18.344;2023-04-25T10:01:47;7.57;;;3.80;;
58414;SDS011;44210;42.706;18.344;2023-04-25T10:04:16;11.40;;;6.40;;
58414;SDS011;44210;42.706;18.344;2023-04-25T10:06:45;10.50;;;6.70;;
58414;SDS011;44210;42.706;18.344;2023-04-25T10:09:14;11.55;;;7.22;;
58414;SDS011;44210;42.706;18.344;2023-04-25T10:11:40;10.48;;;7.75;;
58414;SDS011;44210;42.706;18.344;2023-04-25T10:14:07;9.60;;;6.85;;
58414;SDS011;44210;42.706;18.344;2023-04-25T10:16:33;11.40;;;7.43;;
58414;SDS011;44210;42.706;18.344;2023-04-25T10:18:59;14.73;;;6.32;;
58414;SDS011;44210;42.706;18.344;2023-04-25T10:21:25;10.48;;;6.10;;
58414;SDS011;44210;42.706;18.344;2023-04-25T10:23:53;11.30;;;5.85;;
58414;SDS011;44210;42.706;18.344;2023-04-25T10:26:20;10.95;;;5.32;;
58414;SDS011;44210;42.706;18.344;2023-04-25T10:28:59;11.38;;;5.60;;
58414;SDS011;44210;42.706;18.344;2023-04-25T10:31:26;8.55;;;5.13;;
58414;SDS011;44210;42.706;18.344;2023-04-25T10:33:52;9.32;;;5.10;;
58414;SDS011;44210;42.706;18.344;2023-04-25T10:36:20;7.97;;;4.65;;
58414;SDS011;44210;42.706;18.344;2023-04-25T10:38:47;9.05;;;4.60;;
58414;SDS011;44210;42.706;18.344;2023-04-25T10:41:15;5.72;;;3.65;;
58414;SDS011;44210;42.706;18.344;2023-04-25T10:43:44;7.10;;;3.95;;
58414;SDS011;44210;42.706;18.344;2023-04-25T10:46:14;6.28;;;3.60;;
58414;SDS011;44210;42.706;18.344;2023-04-25T10:48:54;7.65;;;3.53;;
58414;SDS011;44210;42.706;18.344;2023-04-25T10:54:02;5.10;;;2.72;;
58414;SDS011;44210;42.706;18.344;2023-04-25T11:01:41;5.18;;;2.92;;
58414;SDS011;44210;42.706;18.344;2023-04-25T11:04:22;4.07;;;2.55;;
58414;SDS011;44210;42.706;18.344;2023-04-25T11:09:17;7.00;;;2.58;;
58414;SDS011;44210;42.706;18.344;2023-04-25T11:11:47;9.15;;;2.30;;
58414;SDS011;44210;42.706;18.344;2023-04-25T11:14:19;6.90;;;3.22;;
58414;SDS011;44210;42.706;18.344;2023-04-25T11:16:45;4.70;;;2.60;;
58414;SDS011;44210;42.706;18.344;2023-04-25T11:19:11;5.07;;;2.70;;
58414;SDS011;44210;42.706;18.344;2023-04-25T11:21:37;5.13;;;2.75;;
58414;SDS011;44210;42.706;18.344;2023-04-25T11:24:04;5.47;;;2.28;;
58414;SDS011;44210;42.706;18.344;2023-04-25T11:26:30;4.55;;;2.30;;
58414;SDS011;44210;42.706;18.344;2023-04-25T11:28:59;5.60;;;2.00;;
58414;SDS011;44210;42.706;18.344;2023-04-25T11:31:25;4.22;;;1.92;;
58414;SDS011;44210;42.706;18.344;2023-04-25T11:33:53;4.28;;;2.00;;
58414;SDS011;44210;42.706;18.344;2023-04-25T11:36:20;5.28;;;2.42;;
58414;SDS011;44210;42.706;18.344;2023-04-25T11:38:46;4.63;;;1.90;;
58414;SDS011;44210;42.706;18.344;2023-04-25T11:41:12;5.50;;;1.95;;
58414;SDS011;44210;42.706;18.344;2023-04-25T11:43:38;9.77;;;2.28;;
58414;SDS011;44210;42.706;18.344;2023-04-25T11:46:07;5.03;;;2.30;;
58414;SDS011;44210;42.706;18.344;2023-04-25T11:48:40;3.22;;;1.90;;
58414;SDS011;44210;42.706;18.344;2023-04-25T11:53:32;32.58;;;13.15;;
58414;SDS011;44210;42.706;18.344;2023-04-25T11:55:58;13.30;;;5.50;;
58414;SDS011;44210;42.706;18.344;2023-04-25T11:58:25;13.18;;;5.53;;
58414;SDS011;44210;42.706;18.344;2023-04-25T12:00:51;11.77;;;4.38;;
58414;SDS011;44210;42.706;18.344;2023-04-25T12:03:18;13.10;;;5.05;;
58414;SDS011;44210;42.706;18.344;2023-04-25T12:05:44;8.93;;;3.88;;
58414;SDS011;44210;42.706;18.344;2023-04-25T12:08:14;6.32;;;3.13;;
58414;SDS011;44210;42.706;18.344;2023-04-25T12:10:41;3.08;;;1.40;;
58414;SDS011;44210;42.706;18.344;2023-04-25T12:13:20;7.10;;;1.60;;
58414;SDS011;44210;42.706;18.344;2023-04-25T12:15:46;9.32;;;2.30;;
58414;SDS011;44210;42.706;18.344;2023-04-25T12:18:13;4.53;;;1.77;;
58414;SDS011;44210;42.706;18.344;2023-04-25T12:20:40;4.18;;;1.75;;
58414;SDS011;44210;42.706;18.344;2023-04-25T12:23:07;5.70;;;1.88;;
58414;SDS011;44210;42.706;18.344;2023-04-25T12:25:34;5.05;;;1.73;;
58414;SDS011;44210;42.706;18.344;2023-04-25T12:28:20;3.42;;;1.63;;
58414;SDS011;44210;42.706;18.344;2023-04-25T12:30:56;5.78;;;1.50;;
58414;SDS011;44210;42.706;18.344;2023-04-25T12:33:23;2.92;;;1.70;;
58414;SDS011;44210;42.706;18.344;2023-04-25T12:35:49;3.50;;;1.40;;
58414;SDS011;44210;42.706;18.344;2023-04-25T12:38:29;1.80;;;1.10;;
58414;SDS011;44210;42.706;18.344;2023-04-25T12:40:59;4.57;;;1.02;;
58414;SDS011;44210;42.706;18.344;2023-04-25T12:43:25;7.50;;;1.88;;
58414;SDS011;44210;42.706;18.344;2023-04-25T12:45:52;3.38;;;0.90;;
58414;SDS011;44210;42.706;18.344;2023-04-25T12:48:18;2.90;;;1.30;;
58414;SDS011;44210;42.706;18.344;2023-04-25T12:50:45;5.45;;;1.25;;
58414;SDS011;44210;42.706;18.344;2023-04-25T12:53:14;6.07;;;1.10;;
58414;SDS011;44210;42.706;18.344;2023-04-25T12:55:40;2.60;;;1.20;;
58414;SDS011;44210;42.706;18.344;2023-04-25T12:58:06;6.38;;;1.30;;
58414;SDS011;44210;42.706;18.344;2023-04-25T13:00:32;1.40;;;1.10;;
58414;SDS011;44210;42.706;18.344;2023-04-25T13:02:58;5.78;;;1.77;;
58414;SDS011;44210;42.706;18.344;2023-04-25T13:05:25;3.63;;;1.42;;
58414;SDS011;44210;42.706;18.344;2023-04-25T13:07:51;6.53;;;1.60;;
58414;SDS011;44210;42.706;18.344;2023-04-25T13:10:17;4.63;;;1.25;;
58414;SDS011;44210;42.706;18.344;2023-04-25T13:12:43;3.22;;;1.52;;
58414;SDS011;44210;42.706;18.344;2023-04-25T13:15:10;5.93;;;3.03;;
58414;SDS011;44210;42.706;18.344;2023-04-25T13:17:37;4.70;;;1.30;;
58414;SDS011;44210;42.706;18.344;2023-04-25T13:20:05;3.63;;;1.50;;
58414;SDS011;44210;42.706;18.344;2023-04-25T13:22:33;6.30;;;1.90;;
58414;SDS011;44210;42.706;18.344;2023-04-25T13:25:02;2.17;;;1.05;;
58414;SDS011;44210;42.706;18.344;2023-04-25T13:27:28;7.90;;;1.30;;
58414;SDS011;44210;42.706;18.344;2023-04-25T13:29:55;1.73;;;1.05;;
58414;SDS011;44210;42.706;18.344;2023-04-25T13:32:21;4.30;;;1.25;;
58414;SDS011;44210;42.706;18.344;2023-04-25T13:34:47;3.80;;;2.03;;
58414;SDS011;44210;42.706;18.344;2023-04-25T13:37:13;3.25;;;1.77;;
58414;SDS011;44210;42.706;18.344;2023-04-25T13:39:39;2.38;;;1.15;;
58414;SDS011;44210;42.706;18.344;2023-04-25T13:42:05;3.42;;;1.50;;
58414;SDS011;44210;42.706;18.344;2023-04-25T13:44:31;4.35;;;1.45;;
58414;SDS011;44210;42.706;18.344;2023-04-25T13:46:57;4.43;;;1.38;;
58414;SDS011;44210;42.706;18.344;2023-04-25T13:49:25;6.85;;;1.20;;
58414;SDS011;44210;42.706;18.344;2023-04-25T13:51:51;2.90;;;1.23;;
58414;SDS011;44210;42.706;18.344;2023-04-25T13:54:18;4.78;;;1.38;;
58414;SDS011;44210;42.706;18.344;2023-04-25T13:56:44;4.18;;;1.08;;
58414;SDS011;44210;42.706;18.344;2023-04-25T13:59:10;2.70;;;1.30;;
58414;SDS011;44210;42.706;18.344;2023-04-25T14:31:19;18.17;;;2.33;;
58414;SDS011;44210;42.706;18.344;2023-04-25T14:33:45;2.90;;;1.00;;
58414;SDS011;44210;42.706;18.344;2023-04-25T14:36:11;3.35;;;1.23;;
58414;SDS011;44210;42.706;18.344;2023-04-25T14:38:39;4.40;;;1.77;;
58414;SDS011;44210;42.706;18.344;2023-04-25T14:41:05;11.80;;;9.05;;
58414;SDS011;44210;42.706;18.344;2023-04-25T14:43:31;7.72;;;2.85;;
58414;SDS011;44210;42.706;18.344;2023-04-25T14:45:57;7.57;;;1.70;;
58414;SDS011;44210;42.706;18.344;2023-04-25T14:48:23;5.50;;;1.70;;
58414;SDS011;44210;42.706;18.344;2023-04-25T14:50:49;5.90;;;2.13;;
58414;SDS011;44210;42.706;18.344;2023-04-25T14:53:15;4.25;;;1.33;;
58414;SDS011;44210;42.706;18.344;2023-04-25T14:55:41;2.13;;;1.20;;
58414;SDS011;44210;42.706;18.344;2023-04-25T14:58:07;22.52;;;2.83;;
58414;SDS011;44210;42.706;18.344;2023-04-25T15:00:34;4.05;;;1.58;;
58414;SDS011;44210;42.706;18.344;2023-04-25T15:03:00;2.65;;;1.40;;
58414;SDS011;44210;42.706;18.344;2023-04-25T15:05:26;5.85;;;2.00;;
58414;SDS011;44210;42.706;18.344;2023-04-25T15:07:52;24.30;;;3.05;;
58414;SDS011;44210;42.706;18.344;2023-04-25T15:10:19;4.70;;;1.70;;
58414;SDS011;44210;42.706;18.344;2023-04-25T15:12:46;4.60;;;1.73;;
58414;SDS011;44210;42.706;18.344;2023-04-25T15:15:12;5.07;;;1.60;;
58414;SDS011;44210;42.706;18.344;2023-04-25T15:17:41;2.72;;;1.33;;
58414;SDS011;44210;42.706;18.344;2023-04-25T15:20:08;9.63;;;1.48;;